sensor_id;sensor_type;location;lat;lon;timestamp;temperature;humidity
36818;DHT22;22761;51.542;16.450;2022-07-22T00:01:51;22.22;71.55
36818;DHT22;22761;51.542;16.450;2022-07-22T00:04:18;22.16;71.44
36818;DHT22;22761;51.542;16.450;2022-07-22T00:06:45;22.15;70.83
36818;DHT22;22761;51.542;16.450;2022-07-22T00:09:13;22.12;71.13
36818;DHT22;22761;51.542;16.450;2022-07-22T00:11:40;22.09;71.38
36818;DHT22;22761;51.542;16.450;2022-07-22T00:14:07;22.05;70.93
36818;DHT22;22761;51.542;16.450;2022-07-22T00:16:34;22.02;70.99
36818;DHT22;22761;51.542;16.450;2022-07-22T00:19:01;22.02;69.52
36818;DHT22;22761;51.542;16.450;2022-07-22T00:21:28;21.96;69.76
36818;DHT22;22761;51.542;16.450;2022-07-22T00:23:55;21.96;70.33
36818;DHT22;22761;51.542;16.450;2022-07-22T00:26:22;21.94;70.38
36818;DHT22;22761;51.542;16.450;2022-07-22T00:28:49;21.95;70.16
36818;DHT22;22761;51.542;16.450;2022-07-22T00:31:16;21.96;68.89
36818;DHT22;22761;51.542;16.450;2022-07-22T00:33:43;21.98;68.06
36818;DHT22;22761;51.542;16.450;2022-07-22T00:36:10;21.99;67.27
36818;DHT22;22761;51.542;16.450;2022-07-22T00:38:38;22.01;67.35
36818;DHT22;22761;51.542;16.450;2022-07-22T00:41:05;22.06;67.24
36818;DHT22;22761;51.542;16.450;2022-07-22T00:43:55;22.11;66.76
36818;DHT22;22761;51.542;16.450;2022-07-22T00:46:26;22.13;66.67
36818;DHT22;22761;51.542;16.450;2022-07-22T00:48:54;22.15;66.45
36818;DHT22;22761;51.542;16.450;2022-07-22T00:51:23;22.19;66.14
36818;DHT22;22761;51.542;16.450;2022-07-22T00:53:51;22.20;65.84
36818;DHT22;22761;51.542;16.450;2022-07-22T00:56:20;22.23;66.01
36818;DHT22;22761;51.542;16.450;2022-07-22T00:58:50;22.23;65.73
36818;DHT22;22761;51.542;16.450;2022-07-22T01:01:17;22.27;65.63
36818;DHT22;22761;51.542;16.450;2022-07-22T01:03:45;22.24;65.54
36818;DHT22;22761;51.542;16.450;2022-07-22T01:06:12;22.24;65.57
36818;DHT22;22761;51.542;16.450;2022-07-22T01:08:39;22.22;65.64
36818;DHT22;22761;51.542;16.450;2022-07-22T01:11:15;22.26;65.52
36818;DHT22;22761;51.542;16.450;2022-07-22T01:13:44;22.26;65.47
36818;DHT22;22761;51.542;16.450;2022-07-22T01:16:12;22.26;65.50
36818;DHT22;22761;51.542;16.450;2022-07-22T01:18:41;22.30;65.50
36818;DHT22;22761;51.542;16.450;2022-07-22T01:21:09;22.31;65.43
36818;DHT22;22761;51.542;16.450;2022-07-22T01:23:38;22.30;65.32
36818;DHT22;22761;51.542;16.450;2022-07-22T01:26:06;22.37;66.93
36818;DHT22;22761;51.542;16.450;2022-07-22T01:28:33;22.41;69.38
36818;DHT22;22761;51.542;16.450;2022-07-22T01:31:01;22.46;69.36
36818;DHT22;22761;51.542;16.450;2022-07-22T01:33:29;22.47;69.36
36818;DHT22;22761;51.542;16.450;2022-07-22T01:35:56;22.31;70.43
36818;DHT22;22761;51.542;16.450;2022-07-22T01:38:26;22.16;73.51
36818;DHT22;22761;51.542;16.450;2022-07-22T01:40:53;22.06;74.27
36818;DHT22;22761;51.542;16.450;2022-07-22T01:43:20;21.91;73.80
36818;DHT22;22761;51.542;16.450;2022-07-22T01:45:51;21.79;74.40
36818;DHT22;22761;51.542;16.450;2022-07-22T01:48:20;21.71;75.10
36818;DHT22;22761;51.542;16.450;2022-07-22T01:50:47;21.64;76.46
36818;DHT22;22761;51.542;16.450;2022-07-22T01:53:16;21.60;77.52
36818;DHT22;22761;51.542;16.450;2022-07-22T01:55:44;21.56;78.67
36818;DHT22;22761;51.542;16.450;2022-07-22T01:58:11;21.56;78.99
36818;DHT22;22761;51.542;16.450;2022-07-22T02:00:38;21.51;79.71
36818;DHT22;22761;51.542;16.450;2022-07-22T02:03:05;21.49;79.83
36818;DHT22;22761;51.542;16.450;2022-07-22T02:05:33;21.46;79.05
36818;DHT22;22761;51.542;16.450;2022-07-22T02:08:06;21.43;77.30
36818;DHT22;22761;51.542;16.450;2022-07-22T02:10:37;21.37;79.08
36818;DHT22;22761;51.542;16.450;2022-07-22T02:13:04;21.33;79.01
36818;DHT22;22761;51.542;16.450;2022-07-22T02:15:32;21.29;78.52
36818;DHT22;22761;51.542;16.450;2022-07-22T02:18:12;21.27;79.58
36818;DHT22;22761;51.542;16.450;2022-07-22T02:20:37;21.26;80.00
36818;DHT22;22761;51.542;16.450;2022-07-22T02:23:04;21.23;80.35
36818;DHT22;22761;51.542;16.450;2022-07-22T02:25:32;21.22;80.45
36818;DHT22;22761;51.542;16.450;2022-07-22T02:28:00;21.17;80.64
36818;DHT22;22761;51.542;16.450;2022-07-22T02:30:27;21.15;81.13
36818;DHT22;22761;51.542;16.450;2022-07-22T02:32:54;21.12;80.46
36818;DHT22;22761;51.542;16.450;2022-07-22T02:35:22;21.09;79.80
36818;DHT22;22761;51.542;16.450;2022-07-22T02:37:49;21.06;79.84
36818;DHT22;22761;51.542;16.450;2022-07-22T02:40:16;21.03;80.63
36818;DHT22;22761;51.542;16.450;2022-07-22T02:42:43;21.03;80.87
36818;DHT22;22761;51.542;16.450;2022-07-22T02:45:11;20.98;80.21
36818;DHT22;22761;51.542;16.450;2022-07-22T02:47:54;20.94;80.17
36818;DHT22;22761;51.542;16.450;2022-07-22T02:50:19;20.91;79.80
36818;DHT22;22761;51.542;16.450;2022-07-22T02:52:47;20.85;80.00
36818;DHT22;22761;51.542;16.450;2022-07-22T02:55:14;20.84;80.18
36818;DHT22;22761;51.542;16.450;2022-07-22T02:57:42;20.78;80.20
36818;DHT22;22761;51.542;16.450;2022-07-22T03:00:11;20.81;80.74
36818;DHT22;22761;51.542;16.450;2022-07-22T03:02:40;20.74;80.81
36818;DHT22;22761;51.542;16.450;2022-07-22T03:05:09;20.70;81.30
36818;DHT22;22761;51.542;16.450;2022-07-22T03:07:38;20.71;81.62
36818;DHT22;22761;51.542;16.450;2022-07-22T03:10:07;20.71;82.11
36818;DHT22;22761;51.542;16.450;2022-07-22T03:12:35;20.74;81.90
36818;DHT22;22761;51.542;16.450;2022-07-22T03:15:02;20.75;82.30
36818;DHT22;22761;51.542;16.450;2022-07-22T03:17:34;20.78;82.16
36818;DHT22;22761;51.542;16.450;2022-07-22T03:20:04;20.82;82.43
36818;DHT22;22761;51.542;16.450;2022-07-22T03:22:31;20.79;82.55
36818;DHT22;22761;51.542;16.450;2022-07-22T03:24:59;20.78;82.48
36818;DHT22;22761;51.542;16.450;2022-07-22T03:27:26;20.77;82.38
36818;DHT22;22761;51.542;16.450;2022-07-22T03:29:54;20.78;82.14
36818;DHT22;22761;51.542;16.450;2022-07-22T03:32:21;20.78;82.33
36818;DHT22;22761;51.542;16.450;2022-07-22T03:34:48;20.78;81.72
36818;DHT22;22761;51.542;16.450;2022-07-22T03:37:16;20.79;81.59
36818;DHT22;22761;51.542;16.450;2022-07-22T03:39:43;20.79;81.45
36818;DHT22;22761;51.542;16.450;2022-07-22T03:42:11;20.82;81.51
36818;DHT22;22761;51.542;16.450;2022-07-22T03:44:39;20.85;81.42
36818;DHT22;22761;51.542;16.450;2022-07-22T03:47:06;20.85;81.51
36818;DHT22;22761;51.542;16.450;2022-07-22T03:49:34;20.87;81.17
36818;DHT22;22761;51.542;16.450;2022-07-22T03:52:01;20.89;80.52
36818;DHT22;22761;51.542;16.450;2022-07-22T03:54:28;20.91;80.21
36818;DHT22;22761;51.542;16.450;2022-07-22T03:56:55;20.92;80.06
36818;DHT22;22761;51.542;16.450;2022-07-22T03:59:22;20.92;80.13
36818;DHT22;22761;51.542;16.450;2022-07-22T04:01:49;20.95;79.93
36818;DHT22;22761;51.542;16.450;2022-07-22T04:04:16;20.94;80.40
36818;DHT22;22761;51.542;16.450;2022-07-22T04:06:45;20.95;79.94
36818;DHT22;22761;51.542;16.450;2022-07-22T04:09:14;20.94;79.76
36818;DHT22;22761;51.542;16.450;2022-07-22T04:11:41;20.95;80.55
36818;DHT22;22761;51.542;16.450;2022-07-22T04:14:08;20.94;80.36
36818;DHT22;22761;51.542;16.450;2022-07-22T04:16:36;20.94;80.35
36818;DHT22;22761;51.542;16.450;2022-07-22T04:19:05;20.96;80.33
36818;DHT22;22761;51.542;16.450;2022-07-22T04:21:43;20.96;79.83
36818;DHT22;22761;51.542;16.450;2022-07-22T04:24:12;20.92;79.54
36818;DHT22;22761;51.542;16.450;2022-07-22T04:26:39;20.89;79.35
36818;DHT22;22761;51.542;16.450;2022-07-22T04:29:06;20.88;80.10
36818;DHT22;22761;51.542;16.450;2022-07-22T04:31:34;20.88;80.42
36818;DHT22;22761;51.542;16.450;2022-07-22T04:34:02;20.88;81.06
36818;DHT22;22761;51.542;16.450;2022-07-22T04:36:29;20.92;80.99
36818;DHT22;22761;51.542;16.450;2022-07-22T04:38:57;20.91;80.21
36818;DHT22;22761;51.542;16.450;2022-07-22T04:41:24;20.92;80.30
36818;DHT22;22761;51.542;16.450;2022-07-22T04:43:51;20.96;80.08
36818;DHT22;22761;51.542;16.450;2022-07-22T04:46:20;20.96;80.02
36818;DHT22;22761;51.542;16.450;2022-07-22T04:48:47;20.98;80.01
36818;DHT22;22761;51.542;16.450;2022-07-22T04:51:15;21.02;80.37
36818;DHT22;22761;51.542;16.450;2022-07-22T04:53:43;21.03;80.35
36818;DHT22;22761;51.542;16.450;2022-07-22T04:56:13;21.06;80.43
36818;DHT22;22761;51.542;16.450;2022-07-22T04:58:39;21.09;80.29
36818;DHT22;22761;51.542;16.450;2022-07-22T05:01:06;21.15;80.92
36818;DHT22;22761;51.542;16.450;2022-07-22T05:03:33;21.20;80.65
36818;DHT22;22761;51.542;16.450;2022-07-22T05:06:01;21.24;80.49
36818;DHT22;22761;51.542;16.450;2022-07-22T05:08:30;21.27;79.83
36818;DHT22;22761;51.542;16.450;2022-07-22T05:10:57;21.33;79.52
36818;DHT22;22761;51.542;16.450;2022-07-22T05:13:24;21.37;79.29
36818;DHT22;22761;51.542;16.450;2022-07-22T05:15:51;21.41;79.22
36818;DHT22;22761;51.542;16.450;2022-07-22T05:18:18;21.46;79.11
36818;DHT22;22761;51.542;16.450;2022-07-22T05:20:46;21.49;78.95
36818;DHT22;22761;51.542;16.450;2022-07-22T05:23:13;21.51;78.71
36818;DHT22;22761;51.542;16.450;2022-07-22T05:25:40;21.56;78.73
36818;DHT22;22761;51.542;16.450;2022-07-22T05:28:07;21.57;78.73
36818;DHT22;22761;51.542;16.450;2022-07-22T05:30:36;21.61;78.88
36818;DHT22;22761;51.542;16.450;2022-07-22T05:33:03;21.65;79.08
36818;DHT22;22761;51.542;16.450;2022-07-22T05:35:44;21.69;78.78
36818;DHT22;22761;51.542;16.450;2022-07-22T05:38:11;21.77;78.50
36818;DHT22;22761;51.542;16.450;2022-07-22T05:40:38;21.81;77.71
36818;DHT22;22761;51.542;16.450;2022-07-22T05:43:05;21.86;77.64
36818;DHT22;22761;51.542;16.450;2022-07-22T05:45:32;21.96;77.45
36818;DHT22;22761;51.542;16.450;2022-07-22T05:47:59;22.02;77.30
36818;DHT22;22761;51.542;16.450;2022-07-22T05:50:28;22.09;76.77
36818;DHT22;22761;51.542;16.450;2022-07-22T05:52:55;22.13;76.82
36818;DHT22;22761;51.542;16.450;2022-07-22T05:55:22;22.22;76.42
36818;DHT22;22761;51.542;16.450;2022-07-22T05:57:51;22.29;76.34
36818;DHT22;22761;51.542;16.450;2022-07-22T06:00:18;22.37;76.57
36818;DHT22;22761;51.542;16.450;2022-07-22T06:02:45;22.43;76.39
36818;DHT22;22761;51.542;16.450;2022-07-22T06:05:14;22.51;75.99
36818;DHT22;22761;51.542;16.450;2022-07-22T06:07:41;22.57;76.10
36818;DHT22;22761;51.542;16.450;2022-07-22T06:10:10;22.63;76.00
36818;DHT22;22761;51.542;16.450;2022-07-22T06:12:37;22.68;75.83
36818;DHT22;22761;51.542;16.450;2022-07-22T06:15:06;22.72;75.27
36818;DHT22;22761;51.542;16.450;2022-07-22T06:17:33;22.76;74.70
36818;DHT22;22761;51.542;16.450;2022-07-22T06:20:00;22.82;74.10
36818;DHT22;22761;51.542;16.450;2022-07-22T06:22:27;22.85;74.31
36818;DHT22;22761;51.542;16.450;2022-07-22T06:24:54;22.92;74.22
36818;DHT22;22761;51.542;16.450;2022-07-22T06:27:21;22.91;73.88
36818;DHT22;22761;51.542;16.450;2022-07-22T06:29:49;22.93;73.78
36818;DHT22;22761;51.542;16.450;2022-07-22T06:32:16;22.96;73.91
36818;DHT22;22761;51.542;16.450;2022-07-22T06:34:43;23.02;74.00
36818;DHT22;22761;51.542;16.450;2022-07-22T06:37:10;23.05;74.41
36818;DHT22;22761;51.542;16.450;2022-07-22T06:39:37;23.09;73.76
36818;DHT22;22761;51.542;16.450;2022-07-22T06:42:08;23.13;73.67
36818;DHT22;22761;51.542;16.450;2022-07-22T06:44:54;23.19;73.30
36818;DHT22;22761;51.542;16.450;2022-07-22T06:47:40;23.22;73.08
36818;DHT22;22761;51.542;16.450;2022-07-22T06:50:10;23.29;73.47
36818;DHT22;22761;51.542;16.450;2022-07-22T06:52:41;23.33;72.99
36818;DHT22;22761;51.542;16.450;2022-07-22T06:55:11;23.41;72.90
36818;DHT22;22761;51.542;16.450;2022-07-22T06:57:39;23.46;72.90
36818;DHT22;22761;51.542;16.450;2022-07-22T07:00:08;23.53;72.46
36818;DHT22;22761;51.542;16.450;2022-07-22T07:02:37;23.60;72.70
36818;DHT22;22761;51.542;16.450;2022-07-22T07:05:05;23.69;72.22
36818;DHT22;22761;51.542;16.450;2022-07-22T07:07:32;23.77;71.91
36818;DHT22;22761;51.542;16.450;2022-07-22T07:10:01;23.84;71.50
36818;DHT22;22761;51.542;16.450;2022-07-22T07:12:33;23.91;71.39
36818;DHT22;22761;51.542;16.450;2022-07-22T07:15:11;24.03;71.12
36818;DHT22;22761;51.542;16.450;2022-07-22T07:17:38;24.06;70.06
36818;DHT22;22761;51.542;16.450;2022-07-22T07:20:08;24.16;70.20
36818;DHT22;22761;51.542;16.450;2022-07-22T07:22:35;24.23;69.84
36818;DHT22;22761;51.542;16.450;2022-07-22T07:25:07;24.27;69.65
36818;DHT22;22761;51.542;16.450;2022-07-22T07:27:35;24.36;69.70
36818;DHT22;22761;51.542;16.450;2022-07-22T07:30:05;24.42;69.19
36818;DHT22;22761;51.542;16.450;2022-07-22T07:32:33;24.47;69.66
36818;DHT22;22761;51.542;16.450;2022-07-22T07:35:01;24.55;69.10
36818;DHT22;22761;51.542;16.450;2022-07-22T07:37:28;24.65;68.52
36818;DHT22;22761;51.542;16.450;2022-07-22T07:39:57;24.74;68.42
36818;DHT22;22761;51.542;16.450;2022-07-22T07:42:25;24.83;67.81
36818;DHT22;22761;51.542;16.450;2022-07-22T07:44:53;24.89;67.89
36818;DHT22;22761;51.542;16.450;2022-07-22T07:47:20;24.95;67.51
36818;DHT22;22761;51.542;16.450;2022-07-22T07:49:48;25.03;67.38
36818;DHT22;22761;51.542;16.450;2022-07-22T07:52:17;25.12;66.79
36818;DHT22;22761;51.542;16.450;2022-07-22T07:54:45;25.16;66.92
36818;DHT22;22761;51.542;16.450;2022-07-22T07:57:12;25.23;67.21
36818;DHT22;22761;51.542;16.450;2022-07-22T07:59:40;25.29;66.56
36818;DHT22;22761;51.542;16.450;2022-07-22T08:02:08;25.34;66.62
36818;DHT22;22761;51.542;16.450;2022-07-22T08:04:36;25.40;66.65
36818;DHT22;22761;51.542;16.450;2022-07-22T08:07:06;25.50;65.79
36818;DHT22;22761;51.542;16.450;2022-07-22T08:09:34;25.57;65.84
36818;DHT22;22761;51.542;16.450;2022-07-22T08:12:05;25.64;64.21
36818;DHT22;22761;51.542;16.450;2022-07-22T08:14:46;25.72;65.42
36818;DHT22;22761;51.542;16.450;2022-07-22T08:17:24;25.82;66.00
36818;DHT22;22761;51.542;16.450;2022-07-22T08:19:52;25.95;65.29
36818;DHT22;22761;51.542;16.450;2022-07-22T08:22:19;26.05;64.35
36818;DHT22;22761;51.542;16.450;2022-07-22T08:24:47;26.15;62.78
36818;DHT22;22761;51.542;16.450;2022-07-22T08:27:16;26.23;62.42
36818;DHT22;22761;51.542;16.450;2022-07-22T08:29:43;26.32;62.24
36818;DHT22;22761;51.542;16.450;2022-07-22T08:32:11;26.39;62.70
36818;DHT22;22761;51.542;16.450;2022-07-22T08:34:38;26.50;61.87
36818;DHT22;22761;51.542;16.450;2022-07-22T08:37:06;26.58;61.81
36818;DHT22;22761;51.542;16.450;2022-07-22T08:39:33;26.69;61.90
36818;DHT22;22761;51.542;16.450;2022-07-22T08:42:01;26.84;61.43
36818;DHT22;22761;51.542;16.450;2022-07-22T08:44:32;26.99;60.91
36818;DHT22;22761;51.542;16.450;2022-07-22T08:47:01;27.12;59.06
36818;DHT22;22761;51.542;16.450;2022-07-22T08:49:33;27.17;57.25
36818;DHT22;22761;51.542;16.450;2022-07-22T08:52:04;27.19;58.60
36818;DHT22;22761;51.542;16.450;2022-07-22T08:54:43;27.23;58.68
36818;DHT22;22761;51.542;16.450;2022-07-22T08:57:12;27.24;57.44
36818;DHT22;22761;51.542;16.450;2022-07-22T08:59:55;27.24;55.50
36818;DHT22;22761;51.542;16.450;2022-07-22T09:02:22;27.29;53.97
36818;DHT22;22761;51.542;16.450;2022-07-22T09:05:03;27.30;55.71
36818;DHT22;22761;51.542;16.450;2022-07-22T09:07:37;27.44;54.96
36818;DHT22;22761;51.542;16.450;2022-07-22T09:10:17;27.56;52.19
36818;DHT22;22761;51.542;16.450;2022-07-22T09:13:07;27.62;52.07
36818;DHT22;22761;51.542;16.450;2022-07-22T09:15:53;27.69;52.52
36818;DHT22;22761;51.542;16.450;2022-07-22T09:18:47;27.82;52.39
36818;DHT22;22761;51.542;16.450;2022-07-22T09:21:34;27.95;50.32
36818;DHT22;22761;51.542;16.450;2022-07-22T09:24:29;28.06;51.12
36818;DHT22;22761;51.542;16.450;2022-07-22T09:27:07;28.23;50.58
36818;DHT22;22761;51.542;16.450;2022-07-22T09:29:36;28.38;50.95
36818;DHT22;22761;51.542;16.450;2022-07-22T09:32:08;28.58;50.59
36818;DHT22;22761;51.542;16.450;2022-07-22T09:34:39;28.75;49.56
36818;DHT22;22761;51.542;16.450;2022-07-22T09:37:08;28.91;49.06
36818;DHT22;22761;51.542;16.450;2022-07-22T09:39:36;29.07;48.29
36818;DHT22;22761;51.542;16.450;2022-07-22T09:42:06;29.14;47.41
36818;DHT22;22761;51.542;16.450;2022-07-22T09:44:34;29.16;47.31
36818;DHT22;22761;51.542;16.450;2022-07-22T09:47:03;29.22;46.74
36818;DHT22;22761;51.542;16.450;2022-07-22T09:49:40;29.22;46.69
36818;DHT22;22761;51.542;16.450;2022-07-22T09:52:27;29.19;48.00
36818;DHT22;22761;51.542;16.450;2022-07-22T09:55:03;29.22;47.01
36818;DHT22;22761;51.542;16.450;2022-07-22T09:57:31;29.27;47.46
36818;DHT22;22761;51.542;16.450;2022-07-22T09:59:58;29.40;46.60
36818;DHT22;22761;51.542;16.450;2022-07-22T10:02:27;29.53;45.92
36818;DHT22;22761;51.542;16.450;2022-07-22T10:04:56;29.69;46.49
36818;DHT22;22761;51.542;16.450;2022-07-22T10:07:24;29.76;46.65
36818;DHT22;22761;51.542;16.450;2022-07-22T10:09:53;29.87;46.96
36818;DHT22;22761;51.542;16.450;2022-07-22T10:12:21;29.99;46.32
36818;DHT22;22761;51.542;16.450;2022-07-22T10:14:49;30.05;45.84
36818;DHT22;22761;51.542;16.450;2022-07-22T10:17:16;30.19;46.60
36818;DHT22;22761;51.542;16.450;2022-07-22T10:19:44;30.40;44.33
36818;DHT22;22761;51.542;16.450;2022-07-22T10:25:14;30.95;43.13
36818;DHT22;22761;51.542;16.450;2022-07-22T10:27:52;30.96;42.97
36818;DHT22;22761;51.542;16.450;2022-07-22T10:30:27;30.85;42.27
36818;DHT22;22761;51.542;16.450;2022-07-22T10:33:12;30.72;42.81
36818;DHT22;22761;51.542;16.450;2022-07-22T10:35:56;30.83;43.53
36818;DHT22;22761;51.542;16.450;2022-07-22T10:38:25;31.03;43.11
36818;DHT22;22761;51.542;16.450;2022-07-22T10:40:59;31.20;43.91
36818;DHT22;22761;51.542;16.450;2022-07-22T10:46:04;31.81;42.34
36818;DHT22;22761;51.542;16.450;2022-07-22T10:51:20;33.04;38.34
36818;DHT22;22761;51.542;16.450;2022-07-22T10:53:56;33.26;38.39
36818;DHT22;22761;51.542;16.450;2022-07-22T10:56:30;33.22;38.86
36818;DHT22;22761;51.542;16.450;2022-07-22T10:59:13;33.56;37.48
36818;DHT22;22761;51.542;16.450;2022-07-22T11:01:47;33.65;37.56
36818;DHT22;22761;51.542;16.450;2022-07-22T11:04:19;33.46;37.40
36818;DHT22;22761;51.542;16.450;2022-07-22T11:06:55;33.19;37.89
36818;DHT22;22761;51.542;16.450;2022-07-22T11:09:31;32.85;38.72
36818;DHT22;22761;51.542;16.450;2022-07-22T11:11:54;32.60;39.60
36818;DHT22;22761;51.542;16.450;2022-07-22T11:14:34;32.48;39.01
36818;DHT22;22761;51.542;16.450;2022-07-22T11:17:12;32.34;37.81
36818;DHT22;22761;51.542;16.450;2022-07-22T11:19:42;32.22;37.63
36818;DHT22;22761;51.542;16.450;2022-07-22T11:22:13;32.43;37.89
36818;DHT22;22761;51.542;16.450;2022-07-22T11:24:42;33.01;37.17
36818;DHT22;22761;51.542;16.450;2022-07-22T11:27:15;33.70;35.34
36818;DHT22;22761;51.542;16.450;2022-07-22T11:29:43;34.33;34.11
36818;DHT22;22761;51.542;16.450;2022-07-22T11:32:15;34.20;35.36
36818;DHT22;22761;51.542;16.450;2022-07-22T11:34:44;34.53;34.56
36818;DHT22;22761;51.542;16.450;2022-07-22T11:37:20;34.46;35.34
36818;DHT22;22761;51.542;16.450;2022-07-22T11:39:54;34.11;36.13
36818;DHT22;22761;51.542;16.450;2022-07-22T11:42:24;33.87;36.77
36818;DHT22;22761;51.542;16.450;2022-07-22T11:44:49;33.56;38.03
36818;DHT22;22761;51.542;16.450;2022-07-22T11:47:16;33.46;37.09
36818;DHT22;22761;51.542;16.450;2022-07-22T11:49:46;33.56;36.85
36818;DHT22;22761;51.542;16.450;2022-07-22T11:52:14;33.82;35.77
36818;DHT22;22761;51.542;16.450;2022-07-22T11:54:44;34.11;35.65
36818;DHT22;22761;51.542;16.450;2022-07-22T11:57:13;34.12;34.88
36818;DHT22;22761;51.542;16.450;2022-07-22T11:59:41;33.81;35.24
36818;DHT22;22761;51.542;16.450;2022-07-22T12:02:10;33.47;35.50
36818;DHT22;22761;51.542;16.450;2022-07-22T12:04:40;33.25;36.61
36818;DHT22;22761;51.542;16.450;2022-07-22T12:07:09;33.64;36.37
36818;DHT22;22761;51.542;16.450;2022-07-22T12:09:36;34.05;36.73
36818;DHT22;22761;51.542;16.450;2022-07-22T12:12:05;33.89;35.88
36818;DHT22;22761;51.542;16.450;2022-07-22T12:14:33;33.85;36.12
36818;DHT22;22761;51.542;16.450;2022-07-22T12:17:09;34.29;34.89
36818;DHT22;22761;51.542;16.450;2022-07-22T12:19:39;34.74;33.79
36818;DHT22;22761;51.542;16.450;2022-07-22T12:22:10;34.85;33.61
36818;DHT22;22761;51.542;16.450;2022-07-22T12:24:45;34.73;32.92
36818;DHT22;22761;51.542;16.450;2022-07-22T12:27:19;34.68;33.52
36818;DHT22;22761;51.542;16.450;2022-07-22T12:29:46;34.94;33.17
36818;DHT22;22761;51.542;16.450;2022-07-22T12:34:58;35.32;32.60
36818;DHT22;22761;51.542;16.450;2022-07-22T12:37:41;35.19;32.29
36818;DHT22;22761;51.542;16.450;2022-07-22T12:40:19;35.11;33.12
36818;DHT22;22761;51.542;16.450;2022-07-22T12:43:08;35.19;32.77
36818;DHT22;22761;51.542;16.450;2022-07-22T12:45:37;35.28;33.22
36818;DHT22;22761;51.542;16.450;2022-07-22T12:48:08;35.22;32.35
36818;DHT22;22761;51.542;16.450;2022-07-22T12:50:42;35.02;31.89
36818;DHT22;22761;51.542;16.450;2022-07-22T12:53:15;34.71;32.49
36818;DHT22;22761;51.542;16.450;2022-07-22T12:55:52;34.50;33.11
36818;DHT22;22761;51.542;16.450;2022-07-22T12:58:31;34.49;33.52
36818;DHT22;22761;51.542;16.450;2022-07-22T13:01:01;34.63;34.04
36818;DHT22;22761;51.542;16.450;2022-07-22T13:03:29;34.87;32.93
36818;DHT22;22761;51.542;16.450;2022-07-22T13:06:00;35.01;33.12
36818;DHT22;22761;51.542;16.450;2022-07-22T13:08:28;35.12;31.91
36818;DHT22;22761;51.542;16.450;2022-07-22T13:10:55;35.06;31.57
36818;DHT22;22761;51.542;16.450;2022-07-22T13:13:23;35.00;31.70
36818;DHT22;22761;51.542;16.450;2022-07-22T13:15:50;34.84;32.29
36818;DHT22;22761;51.542;16.450;2022-07-22T13:18:18;34.80;31.41
36818;DHT22;22761;51.542;16.450;2022-07-22T13:20:45;34.77;31.87
36818;DHT22;22761;51.542;16.450;2022-07-22T13:23:13;34.74;31.91
36818;DHT22;22761;51.542;16.450;2022-07-22T13:25:40;34.85;33.09
36818;DHT22;22761;51.542;16.450;2022-07-22T13:28:07;35.02;32.63
36818;DHT22;22761;51.542;16.450;2022-07-22T13:30:34;35.15;30.89
36818;DHT22;22761;51.542;16.450;2022-07-22T13:33:01;35.13;31.35
36818;DHT22;22761;51.542;16.450;2022-07-22T13:35:29;35.12;31.14
36818;DHT22;22761;51.542;16.450;2022-07-22T13:37:57;35.21;31.77
36818;DHT22;22761;51.542;16.450;2022-07-22T13:40:24;35.39;31.70
36818;DHT22;22761;51.542;16.450;2022-07-22T13:42:51;35.56;31.48
36818;DHT22;22761;51.542;16.450;2022-07-22T13:45:19;35.74;31.79
36818;DHT22;22761;51.542;16.450;2022-07-22T13:47:46;35.88;31.31
36818;DHT22;22761;51.542;16.450;2022-07-22T13:50:13;35.92;31.26
36818;DHT22;22761;51.542;16.450;2022-07-22T13:52:40;36.01;31.01
36818;DHT22;22761;51.542;16.450;2022-07-22T13:55:10;36.15;30.51
36818;DHT22;22761;51.542;16.450;2022-07-22T13:57:39;36.24;30.03
36818;DHT22;22761;51.542;16.450;2022-07-22T14:00:08;36.19;30.74
36818;DHT22;22761;51.542;16.450;2022-07-22T14:02:36;36.21;30.94
36818;DHT22;22761;51.542;16.450;2022-07-22T14:05:04;36.21;31.04
36818;DHT22;22761;51.542;16.450;2022-07-22T14:07:31;36.21;30.13
36818;DHT22;22761;51.542;16.450;2022-07-22T14:09:58;36.14;29.89
36818;DHT22;22761;51.542;16.450;2022-07-22T14:12:25;36.15;29.97
36818;DHT22;22761;51.542;16.450;2022-07-22T14:14:52;36.05;29.84
36818;DHT22;22761;51.542;16.450;2022-07-22T14:17:19;35.87;29.48
36818;DHT22;22761;51.542;16.450;2022-07-22T14:19:46;35.67;30.40
36818;DHT22;22761;51.542;16.450;2022-07-22T14:22:13;35.59;31.05
36818;DHT22;22761;51.542;16.450;2022-07-22T14:24:40;35.53;31.77
36818;DHT22;22761;51.542;16.450;2022-07-22T14:27:07;35.47;31.59
36818;DHT22;22761;51.542;16.450;2022-07-22T14:29:34;35.43;32.20
36818;DHT22;22761;51.542;16.450;2022-07-22T14:32:01;35.45;32.88
36818;DHT22;22761;51.542;16.450;2022-07-22T14:34:36;35.47;32.48
36818;DHT22;22761;51.542;16.450;2022-07-22T14:37:03;35.47;31.93
36818;DHT22;22761;51.542;16.450;2022-07-22T14:39:35;35.45;30.96
36818;DHT22;22761;51.542;16.450;2022-07-22T14:42:03;35.49;30.91
36818;DHT22;22761;51.542;16.450;2022-07-22T14:44:30;35.40;30.44
36818;DHT22;22761;51.542;16.450;2022-07-22T14:46:57;35.19;30.48
36818;DHT22;22761;51.542;16.450;2022-07-22T14:49:24;35.01;30.73
36818;DHT22;22761;51.542;16.450;2022-07-22T14:51:52;34.94;31.17
36818;DHT22;22761;51.542;16.450;2022-07-22T14:54:18;34.98;31.71
36818;DHT22;22761;51.542;16.450;2022-07-22T14:56:50;35.02;31.12
36818;DHT22;22761;51.542;16.450;2022-07-22T14:59:26;35.15;31.31
36818;DHT22;22761;51.542;16.450;2022-07-22T15:01:53;35.21;31.00
36818;DHT22;22761;51.542;16.450;2022-07-22T15:04:20;35.21;31.43
36818;DHT22;22761;51.542;16.450;2022-07-22T15:06:47;35.22;31.30
36818;DHT22;22761;51.542;16.450;2022-07-22T15:09:14;35.13;31.08
36818;DHT22;22761;51.542;16.450;2022-07-22T15:11:42;35.08;31.20
36818;DHT22;22761;51.542;16.450;2022-07-22T15:14:09;34.94;31.87
36818;DHT22;22761;51.542;16.450;2022-07-22T15:16:37;34.73;31.73
36818;DHT22;22761;51.542;16.450;2022-07-22T15:19:04;34.51;31.83
36818;DHT22;22761;51.542;16.450;2022-07-22T15:21:31;34.27;32.27
36818;DHT22;22761;51.542;16.450;2022-07-22T15:23:58;34.02;32.03
36818;DHT22;22761;51.542;16.450;2022-07-22T15:26:29;33.82;32.78
36818;DHT22;22761;51.542;16.450;2022-07-22T15:28:58;33.81;33.00
36818;DHT22;22761;51.542;16.450;2022-07-22T15:31:26;33.85;33.03
36818;DHT22;22761;51.542;16.450;2022-07-22T15:33:55;33.95;32.73
36818;DHT22;22761;51.542;16.450;2022-07-22T15:36:23;34.06;33.30
36818;DHT22;22761;51.542;16.450;2022-07-22T15:38:51;34.11;33.01
36818;DHT22;22761;51.542;16.450;2022-07-22T15:41:19;34.12;33.32